Flight Track Log - Related Links

Times and Time Zones

All times are in EDT time to prevent confusion due to time zone crossing. See the N960DL flight status page for this flight to view local times or setup timezone preferences in your user account.

Time Position Orientation Groundspeed Altitude Reporting Facility
EDT Latitude Longitude Course Direction KTS MPH feet Rate Location/Type
Mon 07:47:46 PM 35.1933 -80.9533 239° Southwest 150 173 1,800  Level Atlanta Center
Mon 07:48:11 PM 35.1747 -80.9542 182° South 160 184 2,200 1,674 Climbing Atlanta Center
Mon 07:49:12 PM 35.1147 -80.9742 195° South 256 295 4,200 2,571 Climbing Atlanta Center
Mon 07:49:56 PM 35.1036 -81.0356 258° West 247 284 6,700 3,173 Climbing Atlanta Center
Mon 07:50:00 PM 35.2595 -81.1736 282° West  Level FlightAware Approximate
Mon 07:50:56 PM 35.1139 -81.1189 279° West 262 302 9,700  Level Atlanta Center
Mon 07:51:00 PM 35.2365 -81.2871 242° Southwest  Level FlightAware Approximate
Mon 07:51:56 PM 35.1181 -81.2100 273° West 269 310 11,600  Level Atlanta Center
Mon 07:52:00 PM 35.1863 -81.3941 239° Southwest  Level FlightAware Approximate
Mon 07:52:56 PM 35.1292 -81.3239 277° West 318 366 13,100  Level Atlanta Center
Mon 07:53:56 PM 35.1378 -81.4406 275° West 360 414 15,000 2,150 Climbing Atlanta Center
Mon 07:54:56 PM 35.1175 -81.5681 259° West 385 443 17,400 2,100 Climbing Atlanta Center
Mon 07:55:56 PM 35.0867 -81.7011 254° West 400 460 19,200 1,850 Climbing Atlanta Center
Mon 07:56:56 PM 35.0539 -81.8364 254° West 410 472 21,100 1,900 Climbing Atlanta Center
Mon 07:57:56 PM 35.0228 -81.9742 255° West 421 484 23,000 1,950 Climbing Atlanta Center
Mon 07:58:56 PM 34.9856 -82.1247 253° West 422 486 25,000 2,200 Climbing Atlanta Center
Mon 07:59:56 PM 34.9564 -82.2547 255° West 416 479 27,400 1,500 Climbing Atlanta Center
Mon 08:00:56 PM 34.9225 -82.3769 251° West 400 460 28,000 300 Climbing Atlanta Center
Mon 08:01:56 PM 34.8908 -82.5067 253° West 399 459 28,000  Level Atlanta Center
Mon 08:02:56 PM 34.8589 -82.6364 253° West 399 459 28,000 -350 Level Atlanta Center
Mon 08:03:56 PM 34.8164 -82.7536 246° West 399 459 27,300 -1,100 Descending Atlanta Center
Mon 08:04:56 PM 34.7467 -82.8608 232° Southwest 394 453 25,800 -1,350 Descending Atlanta Center
Mon 08:05:56 PM 34.6767 -82.9628 230° Southwest 400 460 24,600 -1,200 Descending Atlanta Center
Mon 08:06:56 PM 34.6064 -83.0647 230° Southwest 400 460 23,400 -1,250 Descending Atlanta Center
Mon 08:07:56 PM 34.5383 -83.1611 229° Southwest 393 452 22,100 -1,450 Descending Atlanta Center
Mon 08:08:56 PM 34.4722 -83.2653 232° Southwest 393 452 20,500 -1,550 Descending Atlanta Center
Mon 08:09:56 PM 34.4081 -83.3642 232° Southwest 385 443 19,000 -1,400 Descending Atlanta Center
Mon 08:10:56 PM 34.3500 -83.4525 231° Southwest 375 432 17,700 -1,600 Descending Atlanta Center
Mon 08:11:56 PM 34.2836 -83.5461 229° Southwest 369 425 15,800 -1,800 Descending Atlanta Center
Mon 08:12:56 PM 34.2214 -83.6369 230° Southwest 364 419 14,100 -1,800 Descending Atlanta Center
Mon 08:13:56 PM 34.1633 -83.7250 231° Southwest 353 406 12,200 -1,050 Descending Atlanta Center
Mon 08:14:56 PM 34.1072 -83.8131 232° Southwest 340 391 12,000 -504 Descending Atlanta Center
Mon 08:15:55 PM 34.0500 -83.8833 226° Southwest 280 322 11,200 -1,210 Descending Atlanta TRACON
Mon 08:16:55 PM 34.0000 -83.9500 228° Southwest 271 312 9,600 -1,105 Descending Atlanta TRACON
Mon 08:17:49 PM 33.9167 -83.9667 189° South 299 344 9,100 -650 Descending Atlanta TRACON
Mon 08:18:55 PM 33.8333 -83.9667 180° South 289 333 8,300 -600 Descending Atlanta TRACON
Mon 08:19:49 PM 33.7667 -83.9667 180° South 293 337 7,900 -684 Descending Atlanta TRACON
Mon 08:20:49 PM 33.6833 -83.9833 189° South 265 305 7,000 -850 Descending Atlanta TRACON
Mon 08:21:56 PM 33.6419 -84.0389 228° Southwest 205 236 6,100 -710 Descending Atlanta Center
Mon 08:23:55 PM 33.6333 -84.1833 266° West 218 251 4,800 -804 Descending Atlanta TRACON
Mon 08:24:55 PM 33.6333 -84.2500 270° West 197 227 3,700 -1,100 Descending Atlanta TRACON

Login

Don't have an account? Register now (free) for customized features, flight alerts, and more!